Portada
METAR-TAF:

METAR-TAF

Aeroports :

Illa Lavan, Iran

latitud: 26-48-37N, longitud: 53-21-22E, altitud: 23 m

Observació

L'informe es va fer fa 51 minuts, a les 10:00 UTC
Vent 10 kt del Est/Sud-Est
Temperatura 33°C
Humitat 28%
Pressió 1009 hPa
Visibilitat: 3500 m
calitja

METAR: OIBV 091000Z 12010KT 3500 HZ NSC 33/12 Q1009

Hora: 15:21 (10:51 UTC)


TAF: manca

Observacions i pronòstics meteorològics de més de 4000 aeroports (METAR i TAF).

Les estacions disponibles són els punts grocs i vermells al mapa.

Posi el ratolí al punt desitjat per veure el nom de l'estació.

Feu clic per veure les observacions i els pronòstics meteorològics.

Per canviar el mapa: feu clic els botons verds amb una creu de color negre per apropar; al botó verd amb un guió per allunyar la imatge; o en les fletxes verdes per a mapes adjacents.


METAR-TAF: